CN-0149 weather

Fuzhou Air Base
Fuzhou, Fujian Province, China

Public forecast

Using degrees Celsius for public forecast. Weather courtesy of forecast.io.

Closest aviation weather report (METAR) to Fuzhou Air Base

Closest report is Fuzhou Changle International Airport, 19.4 nm (35.9 km) ESE. Retrieved 2019/10/15 21:00 UTC (5 minutes ago):

ZSFZ 152100Z 02006MPS 9999 FEW050 20/08 Q1021 NOSIG

Closest aviation forecast (TAF) to Fuzhou Air Base

Closest forecast is Fuzhou Changle International Airport, 19.4 nm (35.9 km) ESE. Retrieved 2019/10/15 18:00 UTC (3 hours ago):

TAF ZSFZ 151503Z 1518/1618 04009MPS 3000 BR BKN015 TX26/1606Z TN17/1521Z BECMG 1609/1611 04004MPS